createdAt,value
2023-03-29T00:01:58.638Z,101337.97
2023-03-29T00:07:04.409Z,101329.56
2023-03-29T00:12:06.448Z,101329.41
2023-03-29T00:17:08.081Z,101308.75
2023-03-29T00:22:10.649Z,101303.25
2023-03-29T00:27:12.298Z,101298.31
2023-03-29T00:32:14.222Z,101298.06
2023-03-29T00:37:15.782Z,101304.38
2023-03-29T00:42:20.705Z,101304.28
2023-03-29T00:47:29.938Z,101306.59
2023-03-29T00:52:34.368Z,101311.44
2023-03-29T00:57:39.751Z,101296.16
2023-03-29T01:02:42.430Z,101287.25
2023-03-29T01:07:53.793Z,101273.38
2023-03-29T01:13:03.776Z,101280.88
2023-03-29T01:18:06.544Z,101276.56
2023-03-29T01:23:21.357Z,101271.13
2023-03-29T01:28:29.805Z,101248.38
2023-03-29T01:33:38.548Z,101230.41
2023-03-29T01:39:06.145Z,101229.75
2023-03-29T01:44:30.792Z,101212.91
2023-03-29T01:49:38.085Z,101221.84
2023-03-29T01:54:53.903Z,101233.91
2023-03-29T01:59:57.661Z,101238.47
2023-03-29T02:05:00.153Z,101226.72
2023-03-29T02:10:03.285Z,101225.41
2023-03-29T02:15:10.902Z,101234.69
2023-03-29T02:20:23.573Z,101223.66
2023-03-29T02:25:26.120Z,101204.22
2023-03-29T02:30:33.428Z,101213.13
2023-03-29T02:35:41.597Z,101209.28
2023-03-29T02:40:46.801Z,101204.31
2023-03-29T02:45:49.304Z,101199.63
2023-03-29T02:50:56.238Z,101189.19
2023-03-29T02:56:02.310Z,101184.50
2023-03-29T03:01:06.935Z,101184.94
2023-03-29T03:06:08.670Z,101187.56
2023-03-29T03:11:10.417Z,101172.50
2023-03-29T03:16:11.990Z,101178.53
2023-03-29T03:21:16.121Z,101168.81
2023-03-29T03:26:19.982Z,101168.66
2023-03-29T03:31:24.866Z,101171.00
2023-03-29T03:36:47.314Z,101163.47
2023-03-29T03:41:49.232Z,101150.00
2023-03-29T03:46:52.436Z,101117.84
2023-03-29T03:51:54.254Z,101071.69
2023-03-29T03:56:56.148Z,101052.63
2023-03-29T04:02:08.669Z,101023.69
2023-03-29T04:07:14.263Z,100994.72
2023-03-29T04:12:33.075Z,100985.72
2023-03-29T04:17:35.797Z,100977.31
2023-03-29T04:22:53.457Z,100966.41
2023-03-29T04:27:56.417Z,100954.31
2023-03-29T04:33:18.494Z,100949.69
2023-03-29T04:38:26.812Z,100948.53
2023-03-29T04:43:31.072Z,100942.44
2023-03-29T04:48:44.884Z,100941.03
2023-03-29T04:53:50.916Z,100932.44
2023-03-29T04:58:52.852Z,100918.03
2023-03-29T05:03:56.870Z,100913.38
2023-03-29T05:09:08.976Z,100920.75
2023-03-29T05:14:21.717Z,100909.94
2023-03-29T05:19:23.476Z,100907.38
2023-03-29T05:24:27.493Z,100903.94
2023-03-29T05:29:35.443Z,100901.13
2023-03-29T05:34:59.054Z,100894.88
2023-03-29T05:40:10.199Z,100902.53
2023-03-29T05:45:33.608Z,100912.03
2023-03-29T05:50:37.242Z,100914.84
2023-03-29T05:55:41.318Z,100928.06
2023-03-29T06:00:46.530Z,100934.72
2023-03-29T06:06:03.910Z,100932.06
2023-03-29T06:11:09.027Z,100938.28
2023-03-29T06:16:29.435Z,100949.44
2023-03-29T06:21:31.764Z,100939.78
2023-03-29T06:26:35.292Z,100952.69
2023-03-29T06:31:37.232Z,100939.31
2023-03-29T06:36:41.743Z,100944.09
2023-03-29T06:41:43.349Z,100961.06
2023-03-29T06:46:58.421Z,100957.06
2023-03-29T06:52:00.720Z,100972.72
2023-03-29T06:57:06.317Z,100975.06
2023-03-29T07:02:12.833Z,101001.19
2023-03-29T07:07:59.884Z,101016.91
2023-03-29T07:13:21.147Z,101032.97
2023-03-29T07:18:24.796Z,101034.94
2023-03-29T07:23:26.615Z,101055.03
2023-03-29T07:28:31.499Z,101059.97
2023-03-29T07:33:34.592Z,101068.94
2023-03-29T07:38:39.856Z,101063.41
2023-03-29T07:43:47.156Z,101057.09
2023-03-29T07:48:52.225Z,101043.97
2023-03-29T07:53:54.784Z,101030.56
2023-03-29T07:59:11.268Z,101027.81
2023-03-29T08:04:14.386Z,101043.66
2023-03-29T08:09:34.723Z,101060.59
2023-03-29T08:14:36.754Z,101070.50
2023-03-29T08:19:51.107Z,101081.13
2023-03-29T08:24:56.566Z,101087.66
2023-03-29T08:30:02.788Z,101088.06
2023-03-29T08:35:09.641Z,101109.13
2023-03-29T08:40:24.927Z,101114.91
2023-03-29T08:45:39.081Z,101117.81
2023-03-29T08:50:50.025Z,101128.38
2023-03-29T08:55:56.586Z,101115.06
2023-03-29T09:01:16.894Z,101117.25
2023-03-29T09:06:24.686Z,101124.00
2023-03-29T09:11:51.581Z,101114.22
2023-03-29T09:17:07.013Z,101111.16
2023-03-29T09:22:53.923Z,101135.78
2023-03-29T09:28:12.438Z,101144.47
2023-03-29T09:33:37.167Z,101160.97
2023-03-29T09:38:51.055Z,101155.28
2023-03-29T09:43:56.731Z,101135.34
2023-03-29T09:49:11.122Z,101126.13
2023-03-29T09:54:13.160Z,101108.47
2023-03-29T09:59:47.168Z,101081.06
2023-03-29T10:05:04.076Z,101049.53
2023-03-29T10:10:13.286Z,101020.75
2023-03-29T10:15:28.691Z,101005.34
2023-03-29T10:20:34.501Z,100991.09
2023-03-29T10:25:42.963Z,101050.03
2023-03-29T10:30:52.503Z,101040.63
2023-03-29T10:35:57.327Z,101016.13
2023-03-29T10:41:12.945Z,100997.50
2023-03-29T10:46:41.978Z,100966.16
2023-03-29T10:51:49.561Z,100944.19
2023-03-29T10:56:58.023Z,100926.09
2023-03-29T11:02:17.185Z,100962.19
2023-03-29T11:07:34.101Z,100964.03
2023-03-29T11:13:17.423Z,100961.34
2023-03-29T11:18:47.438Z,100953.25
2023-03-29T11:24:26.952Z,100955.56
2023-03-29T11:29:41.392Z,100962.81
2023-03-29T11:35:01.659Z,100967.00
2023-03-29T11:40:15.410Z,100927.94
2023-03-29T11:45:27.276Z,100918.91
2023-03-29T11:50:57.795Z,100880.81
2023-03-29T11:56:11.972Z,100868.56
2023-03-29T12:01:20.319Z,100869.59
2023-03-29T12:06:34.464Z,100846.59
2023-03-29T12:11:57.819Z,100860.00
2023-03-29T12:17:03.376Z,100842.78
2023-03-29T12:22:07.983Z,100835.00
2023-03-29T12:27:38.263Z,100843.81
2023-03-29T12:32:53.458Z,100839.63
2023-03-29T12:38:22.958Z,100820.25
2023-03-29T12:43:49.140Z,100845.03
2023-03-29T12:49:36.148Z,100817.22
2023-03-29T12:54:37.933Z,100787.31
2023-03-29T12:59:45.056Z,100804.63
2023-03-29T13:04:52.321Z,100797.50
2023-03-29T13:10:08.535Z,100806.38
2023-03-29T13:15:19.337Z,100789.31
2023-03-29T13:20:39.727Z,100794.66
2023-03-29T13:26:01.619Z,100783.56
2023-03-29T13:31:29.432Z,100779.84
2023-03-29T13:36:46.597Z,100775.50
2023-03-29T13:41:52.699Z,100801.41
2023-03-29T13:47:13.253Z,100785.66
2023-03-29T13:52:34.885Z,100780.53
2023-03-29T13:57:53.165Z,100773.19
2023-03-29T14:03:04.315Z,100792.59
2023-03-29T14:08:16.935Z,100802.44
2023-03-29T14:13:22.911Z,100818.44
2023-03-29T14:18:28.139Z,100823.47
2023-03-29T14:23:33.001Z,100790.31
2023-03-29T14:28:34.636Z,100822.38
2023-03-29T14:33:38.170Z,100825.09
2023-03-29T14:38:39.943Z,100818.16
2023-03-29T14:43:43.400Z,100827.63
2023-03-29T14:48:45.409Z,100818.94
2023-03-29T14:53:48.324Z,100827.75
2023-03-29T14:58:50.031Z,100824.47
2023-03-29T15:04:05.080Z,100829.03
2023-03-29T15:09:14.195Z,100816.34
2023-03-29T15:14:18.801Z,100834.66
2023-03-29T15:19:22.228Z,100840.34
2023-03-29T15:24:32.290Z,100813.41
2023-03-29T15:29:37.124Z,100809.19
2023-03-29T15:34:38.942Z,100810.94
2023-03-29T15:39:44.270Z,100794.50
2023-03-29T15:44:45.989Z,100794.53
2023-03-29T15:49:47.718Z,100786.44
2023-03-29T15:54:49.289Z,100792.00
2023-03-29T15:59:50.905Z,100794.06
2023-03-29T16:04:56.217Z,100808.00
2023-03-29T16:09:58.026Z,100811.53
2023-03-29T16:14:59.746Z,100792.56
2023-03-29T16:20:01.369Z,100799.28
2023-03-29T16:25:13.582Z,100793.03
2023-03-29T16:30:15.331Z,100774.97
2023-03-29T16:35:27.786Z,100776.63
2023-03-29T16:40:29.348Z,100756.84
2023-03-29T16:45:31.105Z,100758.69
2023-03-29T16:50:32.722Z,100762.13
2023-03-29T16:55:34.732Z,100756.81
2023-03-29T17:00:36.635Z,100752.56
2023-03-29T17:05:41.494Z,100750.75
2023-03-29T17:10:43.760Z,100728.16
2023-03-29T17:15:45.310Z,100720.34
2023-03-29T17:20:47.318Z,100698.63
2023-03-29T17:25:48.987Z,100702.97
2023-03-29T17:30:50.932Z,100688.16
2023-03-29T17:35:53.213Z,100663.91
2023-03-29T17:40:55.371Z,100625.91
2023-03-29T17:45:56.910Z,100624.31
2023-03-29T17:50:58.641Z,100642.38
2023-03-29T17:56:00.564Z,100644.06
2023-03-29T18:01:13.421Z,100642.44
2023-03-29T18:06:20.300Z,100610.41
2023-03-29T18:11:24.665Z,100602.59
2023-03-29T18:16:26.698Z,100606.00
2023-03-29T18:21:28.298Z,100601.59
2023-03-29T18:26:29.858Z,100582.50
2023-03-29T18:31:31.581Z,100568.56
2023-03-29T18:36:33.181Z,100578.97
2023-03-29T18:41:37.297Z,100572.19
2023-03-29T18:46:39.014Z,100575.59
2023-03-29T18:51:42.240Z,100583.25
2023-03-29T18:56:44.091Z,100578.19
2023-03-29T19:01:48.202Z,100567.66
2023-03-29T19:06:49.826Z,100570.34
2023-03-29T19:11:51.493Z,100572.13
2023-03-29T19:16:53.269Z,100567.03
2023-03-29T19:21:57.643Z,100578.31
2023-03-29T19:27:01.807Z,100563.44
2023-03-29T19:32:07.081Z,100569.41
2023-03-29T19:37:08.644Z,100558.00
2023-03-29T19:42:10.966Z,100539.13
2023-03-29T19:47:12.512Z,100539.75
2023-03-29T19:52:14.279Z,100516.94
2023-03-29T19:57:16.390Z,100512.09
2023-03-29T20:02:18.091Z,100502.38
2023-03-29T20:07:19.674Z,100486.03
2023-03-29T20:12:21.379Z,100467.13
2023-03-29T20:17:23.372Z,100455.84
2023-03-29T20:22:26.046Z,100444.75
2023-03-29T20:27:29.414Z,100431.69
2023-03-29T20:32:31.043Z,100407.75
2023-03-29T20:37:32.794Z,100392.38
2023-03-29T20:42:36.613Z,100383.69
2023-03-29T20:47:42.497Z,100365.66
2023-03-29T20:52:44.644Z,100347.56
2023-03-29T20:57:46.196Z,100351.00
2023-03-29T21:02:48.200Z,100329.44
2023-03-29T21:07:49.989Z,100315.81
2023-03-29T21:12:54.279Z,100302.94
2023-03-29T21:17:56.378Z,100311.59
2023-03-29T21:22:58.163Z,100316.72
2023-03-29T21:27:59.915Z,100302.72
2023-03-29T21:33:02.158Z,100276.81
2023-03-29T21:38:03.906Z,100255.22
2023-03-29T21:43:05.413Z,100254.34
2023-03-29T21:48:08.588Z,100234.31
2023-03-29T21:53:10.533Z,100224.09
2023-03-29T21:58:12.125Z,100224.16
2023-03-29T22:03:14.844Z,100231.81
2023-03-29T22:08:16.444Z,100227.34
2023-03-29T22:13:18.494Z,100231.00
2023-03-29T22:18:20.865Z,100222.25
2023-03-29T22:23:24.804Z,100250.88
2023-03-29T22:28:26.418Z,100253.56
2023-03-29T22:33:27.977Z,100259.47
2023-03-29T22:38:32.455Z,100264.63
2023-03-29T22:43:36.684Z,100269.88
2023-03-29T22:48:39.495Z,100268.13
2023-03-29T22:53:41.576Z,100297.38
2023-03-29T22:58:43.789Z,100297.53
2023-03-29T23:03:45.455Z,100302.53
2023-03-29T23:08:47.052Z,100295.72
2023-03-29T23:13:52.568Z,100324.25
2023-03-29T23:18:54.328Z,100342.34
2023-03-29T23:23:55.909Z,100326.97
2023-03-29T23:28:57.588Z,100329.50
2023-03-29T23:33:59.250Z,100318.25
2023-03-29T23:39:01.914Z,100322.47
2023-03-29T23:44:03.777Z,100316.47
2023-03-29T23:49:05.377Z,100300.78
2023-03-29T23:54:07.161Z,100291.38
2023-03-29T23:59:08.874Z,100293.94
